Weather observations for the past three days for
Wales
Imperial (Metric)
Date Time (akdt) Wind (mph) Vis. (mi.) Weather Sky Cond. Temperature (ºF) Relative Humidity Wind Chill (°F) Heat Index (°F) Pressure Precipitation (in)
Air Dwpt 6 hour altimeter (in) sea level (mb) 1 hr 3 hr 6 hr
Max. Min.
07 18:56 NE 13 10.00 Overcast OVC007 21.9 21 96% 11 30.21 1023.0
07 17:56 NE 8 10.00 Overcast OVC007 21.9 21 96% 13 30.21 1023.1
07 16:56 NE 10 10.00 Overcast OVC007 21.9 21 96% 12 30.22 1023.3
07 15:56 NE 10 10.00 Overcast OVC007 21 19.9 21.9 18 96% 11 30.23 1023.6
07 14:56 NE 10 10.00 Overcast OVC005 21 19.9 96% 11 30.23 1023.7
07 13:56 NE 12 10.00 Overcast OVC003 19.9 19.9 100% 9 30.23 1023.8
07 12:56 NE 10 10.00 Overcast OVC003 19 19 100% 8 30.23 1023.6
07 11:56 E 10 10.00 Overcast OVC003 19 19 100% 8 30.23 1023.6
07 10:56 NE 14 10.00 Overcast OVC005 18 18 100% 5 30.23 1023.6
07 09:56 E 14 10.00 Overcast OVC005 18 18 19 18 100% 5 30.23 1023.5
07 08:56 NE 13 10.00 Overcast OVC007 19 19 100% 7 30.22 1023.4
07 07:56 E 12 10.00 Overcast OVC009 19 19 100% 8 30.22 1023.4
07 06:56 NE 13 10.00 Overcast OVC009 18 18 100% 6 30.22 1023.4
07 05:56 NE 12 10.00 Overcast OVC011 19 18 96% 8 30.22 1023.3
07 04:56 NE 13 10.00 Overcast OVC011 19 18 96% 7 30.22 1023.2
07 03:56 NE 9 10.00 Overcast OVC011 19 18 23 19 96% 9 30.21 1023.1
07 02:56 NE 10 10.00 Overcast OVC011 19.9 19 96% 9 30.21 1023.0
07 01:56 E 10 10.00 Overcast OVC011 19.9 19 96% 9 30.21 1022.9
07 00:56 NE 10 10.00 Overcast OVC013 21 19 92% 11 30.2 1022.5
06 23:56 NE 12 10.00 Overcast OVC015 21.9 19 89% 11 30.19 1022.2
06 21:56 NE 9 10.00 Overcast OVC011 23 21.9 30.9 23 96% 14 30.17 1021.7
06 20:56 NE 9 10.00 Overcast OVC011 23 21.9 96% 14 30.17 1021.5
06 19:56 N 7 10.00 Overcast OVC011 25 23 92% 18 30.16 1021.3
06 18:56 NE 5 10.00 Overcast OVC009 24.1 21.9 91% 19 30.16 1021.2
06 17:56 NE 8 10.00 Overcast OVC009 25 21 85% 17 30.14 1020.8
06 16:56 NE 5 10.00 Overcast OVC007 28 19.9 72% 24 30.14 1020.7
06 15:56 Calm 10.00 Overcast OVC007 30 21.9 30 19 72% 30.14 1020.6
06 14:56 Calm 10.00 Overcast OVC005 28 21.9 78% 30.13 1020.4
06 13:56 W 3 10.00 Overcast OVC005 27 21.9 81% 30.13 1020.3
06 12:56 W 7 10.00 Overcast OVC003 21.9 19.9 92% 14 30.12 1020.1
06 11:56 SW 3 10.00 Overcast OVC003 19.9 19.9 100% 30.11 1019.8
06 10:56 SW 7 6.00 Fog/Mist OVC003 19.9 19.9 100% 12 30.11 1019.6
06 09:56 SW 6 10.00 Overcast OVC003 19.9 19.9 21 19 100% 13 30.1 1019.3
06 08:56 SW 5 6.00 Fog/Mist OVC003 19 19 100% 13 30.09 1018.9
06 07:56 W 5 10.00 Overcast OVC003 19 19 100% 13 30.08 1018.7
06 06:56 W 6 10.00 Overcast OVC005 19.9 19.9 100% 13 30.07 1018.3
06 05:56 Calm 10.00 Overcast OVC009 21 21 100% 30.07 1018.2
06 03:56 Calm 10.00 Overcast OVC007 21 21 25 18 100% 30.06 1017.8
06 02:56 Calm 10.00 Overcast OVC009 19 19 100% 30.05 1017.5
06 01:56 Calm 10.00 Fair CLR 19 19 100% 30.05 1017.6
06 00:56 Calm 10.00 Fair CLR 19 19 100% 30.04 1017.4
05 23:56 NW 6 10.00 Fair CLR 21 19.9 96% 14 30.03 1017.0
05 22:56 N 6 10.00 Overcast OVC015 24.1 21 88% 18 30.03 1017.0
05 20:56 N 6 10.00 Overcast OVC013 25 21 85% 19 30.02 1016.6
05 18:56 N 8 10.00 Overcast OVC011 28 23 81% 21 30.01 1016.3
05 17:56 NW 6 10.00 Overcast OVC011 28.9 23 78% 23 30.01 1016.1
05 16:56 Vrbl 3 10.00 Overcast OVC009 30 23 75% 30.01 1016.1
05 14:56 NW 7 10.00 Overcast OVC013 30 21.9 72% 24 30 1015.9
05 13:56 Calm 10.00 Overcast OVC013 30 21 69% 30 1015.8
05 12:56 NE 3 10.00 Overcast OVC013 28 21 75% 29.99 1015.6
05 11:56 NE 3 10.00 Overcast OVC013 26.1 21 81% 29.99 1015.7
05 10:56 NE 5 10.00 Overcast OVC011 25 21.9 88% 20 29.99 1015.7
05 09:56 Calm 10.00 Overcast OVC009 24.1 21.9 24.1 23 91% 30 1015.8
05 08:56 NE 3 10.00 Overcast OVC009 23 21.9 96% 29.99 1015.7
05 07:56 N 5 10.00 Overcast OVC009 23 21.9 96% 18 29.99 1015.4
05 06:56 N 5 10.00 Overcast OVC009 23 23 100% 18 29.98 1015.4
05 05:56 N 5 10.00 Overcast OVC009 23 23 100% 18 29.98 1015.4
05 04:56 N 3 10.00 Overcast OVC009 23 21.9 96% 29.99 1015.4
05 03:56 Vrbl 5 10.00 Overcast OVC009 23 23 25 23 100% 18 29.99 1015.6
05 02:56 Calm 10.00 Overcast OVC009 24.1 23 96% 30 1015.9
05 01:56 W 5 10.00 Overcast OVC009 24.1 23 96% 19 30.01 1016.3
05 00:56 SW 3 10.00 Overcast OVC009 24.1 24.1 100% 30.02 1016.6
04 23:56 Calm 10.00 Overcast OVC009 24.1 24.1 100% 30.03 1017.0
04 22:56 Calm 10.00 Overcast OVC007 25 25 100% 30.03 1017.1
04 21:56 W 3 10.00 Overcast OVC005 25 25 27 25 100% 30.04 1017.3
04 20:56 W 7 10.00 Overcast OVC005 26.1 25 96% 19 30.05 1017.5
04 19:56 SW 6 10.00 Overcast OVC005 25 25 100% 19 30.05 1017.7
Date Time (akdt) Wind (mph) Vis. (mi.) Weather Sky Cond. Air Dwpt Max. Min. Relative Humidity Wind Chill (°F) Heat Index (°F) altimeter (in) sea level (mb) 1 hr 3 hr 6 hr
6 hour
Temperature (ºF) Pressure Precipitation (in)